createdAt,value
2022-12-18T00:00:45.559Z,6.10
2022-12-18T00:03:31.135Z,6.10
2022-12-18T00:06:17.590Z,6.20
2022-12-18T00:09:04.912Z,5.80
2022-12-18T00:11:50.737Z,5.90
2022-12-18T00:14:36.373Z,6.10
2022-12-18T00:17:21.942Z,6.10
2022-12-18T00:20:08.587Z,6.20
2022-12-18T00:22:54.582Z,6.90
2022-12-18T00:25:40.191Z,6.10
2022-12-18T00:28:25.781Z,6.00
2022-12-18T00:31:14.310Z,6.30
2022-12-18T00:34:00.191Z,6.80
2022-12-18T00:36:48.959Z,6.20
2022-12-18T00:39:34.529Z,6.20
2022-12-18T00:45:29.957Z,6.30
2022-12-18T00:48:16.073Z,7.00
2022-12-18T00:51:01.841Z,6.20
2022-12-18T00:53:47.398Z,6.20
2022-12-18T00:56:33.029Z,6.30
2022-12-18T00:59:19.526Z,6.20
2022-12-18T01:02:05.577Z,6.50
2022-12-18T01:04:51.473Z,6.00
2022-12-18T01:10:26.289Z,6.40
2022-12-18T01:13:11.929Z,6.40
2022-12-18T01:15:57.378Z,6.20
2022-12-18T01:21:29.235Z,5.90
2022-12-18T01:24:15.102Z,6.20
2022-12-18T01:27:01.344Z,6.00
2022-12-18T01:29:46.853Z,5.80
2022-12-18T01:32:33.228Z,6.00
2022-12-18T01:38:05.351Z,6.50
2022-12-18T01:40:57.653Z,6.40
2022-12-18T01:43:50.169Z,6.50
2022-12-18T01:46:36.315Z,5.70
2022-12-18T01:52:07.721Z,6.20
2022-12-18T01:54:54.032Z,6.30
2022-12-18T01:57:41.303Z,5.90
2022-12-18T02:00:27.685Z,6.20
2022-12-18T02:03:13.660Z,6.40
2022-12-18T02:06:14.123Z,6.30
2022-12-18T02:14:40.041Z,6.00
2022-12-18T02:17:59.407Z,6.20
2022-12-18T02:20:56.892Z,5.80
2022-12-18T02:23:48.366Z,5.80
2022-12-18T02:26:44.340Z,5.70
2022-12-18T02:29:40.649Z,6.60
2022-12-18T02:32:32.974Z,6.00
2022-12-18T02:35:24.867Z,6.00
2022-12-18T02:38:14.522Z,5.90
2022-12-18T02:41:04.229Z,6.00
2022-12-18T02:43:56.838Z,5.80
2022-12-18T02:46:49.697Z,6.10
2022-12-18T02:49:41.725Z,6.00
2022-12-18T02:52:56.796Z,5.70
2022-12-18T02:56:17.501Z,5.80
2022-12-18T02:59:10.505Z,5.70
2022-12-18T03:02:08.172Z,6.00
2022-12-18T03:07:57.962Z,5.80
2022-12-18T03:10:56.727Z,6.10
2022-12-18T03:13:51.906Z,6.10
2022-12-18T03:16:38.873Z,5.80
2022-12-18T03:19:29.185Z,5.80
2022-12-18T03:22:18.601Z,5.90
2022-12-18T03:25:13.949Z,5.90
2022-12-18T03:28:03.770Z,5.70
2022-12-18T03:30:56.686Z,5.70
2022-12-18T03:33:53.220Z,5.60
2022-12-18T03:36:41.398Z,6.10
2022-12-18T03:39:27.200Z,6.20
2022-12-18T03:42:35.716Z,5.90
2022-12-18T03:45:33.557Z,5.90
2022-12-18T03:48:38.703Z,6.00
2022-12-18T03:51:49.508Z,5.80
2022-12-18T03:54:37.852Z,6.00
2022-12-18T03:57:33.201Z,5.90
2022-12-18T04:00:23.436Z,6.30
2022-12-18T04:03:26.158Z,6.10
2022-12-18T04:06:13.761Z,6.10
2022-12-18T04:11:49.051Z,5.60
2022-12-18T04:14:36.647Z,6.10
2022-12-18T04:17:24.796Z,5.60
2022-12-18T04:20:11.348Z,6.10
2022-12-18T04:25:48.696Z,6.80
2022-12-18T04:28:42.548Z,5.80
2022-12-18T04:31:28.792Z,6.20
2022-12-18T04:37:07.313Z,6.00
2022-12-18T04:39:52.713Z,5.90
2022-12-18T04:42:45.769Z,6.20
2022-12-18T04:45:32.854Z,6.10
2022-12-18T04:51:05.348Z,6.20
2022-12-18T04:53:50.933Z,6.40
2022-12-18T04:56:36.497Z,6.20
2022-12-18T04:59:22.066Z,6.40
2022-12-18T05:02:07.956Z,6.30
2022-12-18T05:13:11.789Z,6.00
2022-12-18T05:15:58.079Z,6.10
2022-12-18T05:18:44.378Z,6.10
2022-12-18T05:21:29.989Z,6.30
2022-12-18T05:24:15.736Z,6.10
2022-12-18T05:27:01.829Z,5.90
2022-12-18T05:29:47.696Z,6.20
2022-12-18T05:32:33.468Z,6.00
2022-12-18T05:35:19.140Z,5.90
2022-12-18T05:40:51.935Z,6.30
2022-12-18T05:43:39.958Z,6.70
2022-12-18T05:51:57.904Z,6.40
2022-12-18T05:54:43.549Z,6.50
2022-12-18T06:00:15.888Z,6.10
2022-12-18T06:03:02.699Z,6.30
2022-12-18T06:05:48.165Z,5.90
2022-12-18T06:11:22.353Z,6.30
2022-12-18T06:16:54.016Z,6.00
2022-12-18T06:19:39.704Z,6.40
2022-12-18T06:22:25.574Z,5.90
2022-12-18T06:25:11.166Z,6.20
2022-12-18T06:30:47.374Z,6.00
2022-12-18T06:33:33.705Z,6.30
2022-12-18T06:36:19.424Z,6.20
2022-12-18T06:39:05.180Z,5.80
2022-12-18T06:41:51.628Z,5.60
2022-12-18T06:47:23.155Z,5.80
2022-12-18T06:50:08.731Z,5.60
2022-12-18T06:52:54.444Z,6.00
2022-12-18T06:55:40.111Z,6.00
2022-12-18T07:01:14.626Z,6.00
2022-12-18T07:04:00.670Z,6.20
2022-12-18T07:06:46.348Z,7.00
2022-12-18T07:09:31.882Z,5.90
2022-12-18T07:12:18.329Z,6.00
2022-12-18T07:15:04.345Z,5.70
2022-12-18T07:17:50.026Z,6.00
2022-12-18T07:23:21.606Z,6.10
2022-12-18T07:26:09.793Z,6.20
2022-12-18T07:28:58.896Z,6.10
2022-12-18T07:31:45.033Z,7.10
2022-12-18T07:34:30.788Z,6.00
2022-12-18T07:42:48.712Z,6.00
2022-12-18T07:45:34.473Z,6.10
2022-12-18T07:51:07.730Z,6.10
2022-12-18T07:53:53.120Z,6.10
2022-12-18T07:56:38.782Z,6.10
2022-12-18T08:02:10.796Z,5.70
2022-12-18T08:04:57.916Z,6.10
2022-12-18T08:10:29.669Z,6.10
2022-12-18T08:16:04.391Z,6.20
2022-12-18T08:18:50.638Z,6.30
2022-12-18T08:24:22.540Z,6.30
2022-12-18T08:30:14.360Z,6.30
2022-12-18T08:32:59.796Z,6.50
2022-12-18T08:35:46.174Z,6.40
2022-12-18T08:38:33.395Z,6.50
2022-12-18T08:41:19.624Z,5.90
2022-12-18T08:44:23.921Z,6.50
2022-12-18T08:47:09.706Z,7.60
2022-12-18T08:49:55.617Z,6.70
2022-12-18T08:55:27.079Z,6.80
2022-12-18T08:58:12.701Z,6.30
2022-12-18T09:01:03.072Z,6.80
2022-12-18T09:03:51.906Z,7.10
2022-12-18T09:06:38.280Z,6.30
2022-12-18T09:14:57.354Z,6.90
2022-12-18T09:17:42.584Z,7.10
2022-12-18T09:20:29.269Z,6.60
2022-12-18T09:23:15.442Z,6.80
2022-12-18T09:26:00.946Z,6.50
2022-12-18T09:31:32.845Z,6.50
2022-12-18T09:34:18.583Z,6.80
2022-12-18T09:37:03.937Z,6.80
2022-12-18T09:39:49.571Z,6.50
2022-12-18T09:45:22.001Z,6.80
2022-12-18T09:48:15.489Z,6.90
2022-12-18T09:51:06.863Z,6.90
2022-12-18T09:53:58.685Z,6.90
2022-12-18T09:56:44.948Z,6.90
2022-12-18T09:59:40.716Z,6.90
2022-12-18T10:02:30.743Z,7.80
2022-12-18T10:05:48.037Z,7.00
2022-12-18T10:09:05.189Z,7.20
2022-12-18T10:11:57.972Z,7.20
2022-12-18T10:15:00.721Z,7.10
2022-12-18T10:18:08.514Z,6.80
2022-12-18T10:20:59.835Z,6.90
2022-12-18T10:24:14.520Z,7.00
2022-12-18T10:27:15.627Z,7.40
2022-12-18T10:30:05.770Z,7.20
2022-12-18T10:35:43.282Z,6.90
2022-12-18T10:38:31.050Z,7.10
2022-12-18T10:41:21.709Z,7.40
2022-12-18T10:44:19.083Z,7.30
2022-12-18T10:47:11.789Z,7.50
2022-12-18T10:49:57.824Z,7.40
2022-12-18T10:55:38.313Z,7.40
2022-12-18T10:58:27.358Z,7.80
2022-12-18T11:01:16.727Z,7.20
2022-12-18T11:04:09.019Z,7.70
2022-12-18T11:06:59.919Z,7.60
2022-12-18T11:09:59.869Z,7.30
2022-12-18T11:15:32.026Z,7.90
2022-12-18T11:18:28.784Z,8.20
2022-12-18T11:21:15.612Z,7.60
2022-12-18T11:24:01.295Z,7.60
2022-12-18T11:26:47.054Z,7.50
2022-12-18T11:29:43.369Z,8.20
2022-12-18T11:32:44.644Z,7.80
2022-12-18T11:35:52.433Z,8.10
2022-12-18T11:38:41.735Z,8.10
2022-12-18T11:41:57.766Z,7.90
2022-12-18T11:45:12.583Z,7.80
2022-12-18T11:48:15.318Z,8.30
2022-12-18T11:51:04.017Z,7.80
2022-12-18T11:56:52.406Z,7.70
2022-12-18T12:00:02.783Z,7.80
2022-12-18T12:03:25.446Z,7.90
2022-12-18T12:06:23.951Z,8.10
2022-12-18T12:12:01.429Z,8.00
2022-12-18T12:14:50.442Z,7.70
2022-12-18T12:18:11.328Z,8.00
2022-12-18T12:21:03.366Z,8.20
2022-12-18T12:24:03.993Z,7.90
2022-12-18T12:26:53.793Z,8.40
2022-12-18T12:29:52.082Z,8.00
2022-12-18T12:33:05.017Z,8.70
2022-12-18T12:35:59.719Z,8.40
2022-12-18T12:38:52.247Z,8.10
2022-12-18T12:42:01.636Z,8.60
2022-12-18T12:44:57.409Z,8.80
2022-12-18T12:47:44.921Z,8.80
2022-12-18T12:50:35.414Z,8.70
2022-12-18T12:53:28.718Z,8.90
2022-12-18T12:56:15.641Z,8.70
2022-12-18T12:59:27.741Z,8.20
2022-12-18T13:02:16.224Z,8.50
2022-12-18T13:05:04.839Z,8.10
2022-12-18T13:07:56.135Z,8.30
2022-12-18T13:10:44.146Z,8.20
2022-12-18T13:13:52.818Z,9.90
2022-12-18T13:16:39.784Z,8.20
2022-12-18T13:19:27.379Z,8.00
2022-12-18T13:22:31.201Z,8.10
2022-12-18T13:25:32.428Z,8.20
2022-12-18T13:28:21.797Z,7.90
2022-12-18T13:34:25.672Z,8.10
2022-12-18T13:37:42.449Z,8.30
2022-12-18T13:40:40.402Z,8.10
2022-12-18T13:43:55.305Z,8.10
2022-12-18T13:46:46.256Z,8.30
2022-12-18T13:49:42.457Z,8.70
2022-12-18T13:52:34.484Z,7.90
2022-12-18T13:55:22.828Z,7.80
2022-12-18T14:00:55.132Z,8.00
2022-12-18T14:09:21.390Z,7.10
2022-12-18T14:12:26.561Z,7.20
2022-12-18T14:15:26.406Z,7.20
2022-12-18T14:18:21.416Z,7.20
2022-12-18T14:21:07.797Z,7.30
2022-12-18T14:24:20.398Z,7.40
2022-12-18T14:27:24.926Z,7.30
2022-12-18T14:30:31.177Z,7.50
2022-12-18T14:36:05.980Z,7.30
2022-12-18T14:38:56.826Z,7.30
2022-12-18T14:47:34.683Z,7.20
2022-12-18T14:53:06.272Z,7.10
2022-12-18T14:55:51.992Z,7.20
2022-12-18T14:58:38.127Z,7.50
2022-12-18T15:01:26.822Z,7.30
2022-12-18T15:04:44.225Z,7.30
2022-12-18T15:07:45.948Z,7.20
2022-12-18T15:10:34.012Z,7.20
2022-12-18T15:13:24.330Z,7.20
2022-12-18T15:16:13.906Z,7.20
2022-12-18T15:19:01.604Z,7.10
2022-12-18T15:21:47.494Z,7.20
2022-12-18T15:24:33.845Z,7.00
2022-12-18T15:27:32.170Z,7.10
2022-12-18T15:30:21.007Z,7.10
2022-12-18T15:33:28.203Z,7.10
2022-12-18T15:36:15.516Z,7.10
2022-12-18T15:39:05.136Z,7.10
2022-12-18T15:42:10.864Z,7.10
2022-12-18T15:44:56.600Z,7.60
2022-12-18T15:47:45.133Z,7.20
2022-12-18T15:50:30.562Z,6.90
2022-12-18T15:53:16.639Z,6.70
2022-12-18T15:56:20.804Z,6.80
2022-12-18T15:59:13.233Z,7.20
2022-12-18T16:04:46.834Z,6.60
2022-12-18T16:07:32.535Z,6.80
2022-12-18T16:10:19.048Z,7.50
2022-12-18T16:21:23.322Z,6.80
2022-12-18T16:24:24.929Z,6.90
2022-12-18T16:27:10.297Z,6.70
2022-12-18T16:29:56.118Z,7.10
2022-12-18T16:32:42.392Z,6.60
2022-12-18T16:35:28.274Z,6.50
2022-12-18T16:41:18.717Z,6.80
2022-12-18T16:52:23.247Z,7.00
2022-12-18T16:55:09.220Z,7.10
2022-12-18T16:57:54.705Z,6.60
2022-12-18T17:00:41.134Z,6.60
2022-12-18T17:03:27.221Z,7.10
2022-12-18T17:09:00.208Z,6.90
2022-12-18T17:14:33.286Z,6.70
2022-12-18T17:17:21.796Z,6.50
2022-12-18T17:20:09.281Z,7.00
2022-12-18T17:25:42.085Z,6.60
2022-12-18T17:31:19.161Z,6.90
2022-12-18T17:34:05.234Z,7.10
2022-12-18T17:42:23.939Z,6.70
2022-12-18T17:45:09.978Z,6.90
2022-12-18T17:47:59.874Z,7.10
2022-12-18T17:53:32.105Z,7.10
2022-12-18T17:56:20.169Z,6.90
2022-12-18T17:59:06.935Z,6.90
2022-12-18T18:01:52.631Z,7.10
2022-12-18T18:04:38.803Z,6.80
2022-12-18T18:07:24.373Z,7.00
2022-12-18T18:10:10.492Z,7.00
2022-12-18T18:13:15.039Z,6.90
2022-12-18T18:16:00.751Z,6.90
2022-12-18T18:18:46.631Z,7.00
2022-12-18T18:21:33.478Z,6.90
2022-12-18T18:24:23.436Z,6.90
2022-12-18T18:27:09.321Z,6.90
2022-12-18T18:29:55.051Z,6.90
2022-12-18T18:32:41.789Z,6.90
2022-12-18T18:35:52.873Z,6.90
2022-12-18T18:38:33.470Z,6.90
2022-12-18T18:41:19.636Z,6.80
2022-12-18T18:44:05.213Z,6.80
2022-12-18T18:46:53.714Z,6.80
2022-12-18T18:49:40.235Z,6.80
2022-12-18T18:52:25.642Z,6.80
2022-12-18T18:55:13.821Z,6.80
2022-12-18T18:58:07.130Z,6.80
2022-12-18T19:01:08.086Z,6.70
2022-12-18T19:03:54.404Z,6.70
2022-12-18T19:06:40.416Z,6.60
2022-12-18T19:09:26.631Z,6.50
2022-12-18T19:12:31.098Z,6.50
2022-12-18T19:15:16.679Z,6.50
2022-12-18T19:18:02.614Z,6.60
2022-12-18T19:20:59.984Z,6.60
2022-12-18T19:23:47.222Z,6.70
2022-12-18T19:26:33.030Z,6.70
2022-12-18T19:29:18.448Z,6.60
2022-12-18T19:32:04.747Z,6.50
2022-12-18T19:34:50.403Z,6.40
2022-12-18T19:37:35.952Z,6.50
2022-12-18T19:40:21.670Z,6.50
2022-12-18T19:43:07.529Z,7.30
2022-12-18T19:45:56.474Z,6.50
2022-12-18T19:48:43.753Z,6.30
2022-12-18T19:51:31.231Z,6.50
2022-12-18T20:05:25.541Z,6.40
2022-12-18T20:08:11.183Z,7.30
2022-12-18T20:10:56.982Z,6.50
2022-12-18T20:13:43.209Z,6.70
2022-12-18T20:16:29.726Z,6.00
2022-12-18T20:19:16.251Z,6.50
2022-12-18T20:22:02.030Z,6.60
2022-12-18T20:24:47.469Z,6.10
2022-12-18T20:30:24.406Z,6.60
2022-12-18T20:33:10.131Z,7.10
2022-12-18T20:36:02.576Z,6.70
2022-12-18T20:38:48.505Z,6.80
2022-12-18T20:41:38.175Z,7.20
2022-12-18T20:44:24.729Z,6.80
2022-12-18T20:47:10.344Z,6.40
2022-12-18T20:49:57.415Z,6.70
2022-12-18T20:52:42.982Z,6.50
2022-12-18T20:55:29.197Z,6.60
2022-12-18T20:58:14.648Z,6.90
2022-12-18T21:01:11.005Z,6.50
2022-12-18T21:03:56.612Z,6.70
2022-12-18T21:06:43.807Z,6.40
2022-12-18T21:09:37.610Z,6.60
2022-12-18T21:12:40.218Z,6.80
2022-12-18T21:15:36.274Z,6.80
2022-12-18T21:18:22.166Z,6.80
2022-12-18T21:23:54.498Z,6.70
2022-12-18T21:26:45.365Z,6.60
2022-12-18T21:29:33.096Z,6.90
2022-12-18T21:32:19.227Z,6.30
2022-12-18T21:35:05.969Z,6.30
2022-12-18T21:37:51.685Z,7.30
2022-12-18T21:40:41.908Z,6.40
2022-12-18T21:43:46.513Z,7.70
2022-12-18T21:46:39.067Z,6.80
2022-12-18T21:49:25.380Z,7.50
2022-12-18T21:54:57.180Z,6.60
2022-12-18T21:57:42.961Z,6.30
2022-12-18T22:00:28.647Z,6.20
2022-12-18T22:03:18.781Z,6.10
2022-12-18T22:06:09.277Z,7.20
2022-12-18T22:08:55.436Z,6.80
2022-12-18T22:11:41.345Z,6.90
2022-12-18T22:14:27.072Z,6.70
2022-12-18T22:17:13.052Z,6.60
2022-12-18T22:19:59.663Z,7.40
2022-12-18T22:22:45.671Z,6.20
2022-12-18T22:39:40.697Z,6.40
2022-12-18T22:42:26.788Z,6.20
2022-12-18T22:45:12.633Z,6.30
2022-12-18T22:50:44.284Z,6.10
2022-12-18T22:53:30.378Z,5.90
2022-12-18T22:56:21.080Z,5.70
2022-12-18T22:59:09.117Z,5.90
2022-12-18T23:01:59.085Z,5.90
2022-12-18T23:04:45.242Z,6.10
2022-12-18T23:07:32.257Z,6.10
2022-12-18T23:10:18.024Z,5.50
2022-12-18T23:15:50.044Z,6.00
2022-12-18T23:18:36.384Z,5.80
2022-12-18T23:21:23.432Z,5.60
2022-12-18T23:24:10.253Z,5.50
2022-12-18T23:26:56.144Z,6.00
2022-12-18T23:29:41.973Z,5.40
2022-12-18T23:32:27.725Z,5.60
2022-12-18T23:38:01.975Z,5.70
2022-12-18T23:40:47.531Z,5.90
2022-12-18T23:43:34.592Z,5.50
2022-12-18T23:46:26.010Z,6.10
2022-12-18T23:51:57.658Z,5.80
